Time;durP1;ratioP1;P1;durP2;ratioP2;P2;SDS_P1;SDS_P2;PMS_P1;PMS_P2;Temp;Humidity;BMP_temperature;BMP_pressure;BME280_temperature;BME280_humidity;BME280_pressure;Samples;Min_cycle;Max_cycle;Signal;HPM_P1;HPM_P2
2023/05/19 00:01:36;;;;;;;13.63;4.63;;;9.60;99.90;;;;;;5141635;27;20070;-76
2023/05/19 00:04:04;;;;;;;13.25;5.00;;;9.50;99.90;;;;;;5130815;27;20047;-77
2023/05/19 00:06:32;;;;;;;13.13;4.72;;;9.50;99.90;;;;;;5117267;27;20599;-76
2023/05/19 00:09:11;;;;;;;14.73;4.63;;;9.50;99.90;;;;;;5104153;27;20068;-75
2023/05/19 00:11:38;;;;;;;11.00;4.50;;;9.50;99.90;;;;;;5131575;27;20047;-75
2023/05/19 00:14:07;;;;;;;17.83;4.55;;;9.50;99.90;;;;;;5129826;27;20051;-76
2023/05/19 00:16:33;;;;;;;13.68;4.80;;;9.40;99.90;;;;;;5131159;27;20767;-75
2023/05/19 00:19:01;;;;;;;12.23;4.88;;;9.40;99.90;;;;;;5130511;27;20773;-75
2023/05/19 00:21:28;;;;;;;16.25;6.53;;;9.40;99.90;;;;;;5130557;27;20476;-75
2023/05/19 00:23:54;;;;;;;10.48;4.70;;;9.40;99.90;;;;;;5160137;27;20051;-76
2023/05/19 00:26:22;;;;;;;15.90;5.43;;;9.40;99.90;;;;;;5131022;27;20087;-76
2023/05/19 00:28:49;;;;;;;13.93;5.63;;;9.30;99.90;;;;;;5101256;27;20082;-76
2023/05/19 00:31:15;;;;;;;16.67;5.35;;;9.30;99.90;;;;;;5113880;27;20061;-75
2023/05/19 00:33:41;;;;;;;18.75;5.63;;;9.30;99.90;;;;;;5130614;27;20051;-76
2023/05/19 00:36:07;;;;;;;16.45;5.43;;;9.30;99.90;;;;;;5113581;27;20053;-76
2023/05/19 00:38:35;;;;;;;16.55;5.28;;;9.30;99.90;;;;;;5115136;27;20066;-75
2023/05/19 00:41:01;;;;;;;18.85;5.72;;;9.20;99.90;;;;;;5110994;28;20054;-75
2023/05/19 00:43:29;;;;;;;17.02;6.05;;;9.30;99.90;;;;;;5143825;27;20044;-76
2023/05/19 00:45:55;;;;;;;14.68;5.57;;;9.20;99.90;;;;;;5142284;27;20114;-75
2023/05/19 00:48:21;;;;;;;;;;;9.20;99.90;;;;;;5145066;27;20099;-76
2023/05/19 00:50:48;;;;;;;13.20;5.05;;;9.20;99.90;;;;;;5110705;28;20271;-75
2023/05/19 00:53:15;;;;;;;14.02;5.55;;;9.20;99.90;;;;;;5110616;28;20043;-75
2023/05/19 00:55:41;;;;;;;22.63;6.13;;;9.20;99.90;;;;;;5111265;27;20176;-75
2023/05/19 00:58:09;;;;;;;15.95;5.78;;;9.10;99.90;;;;;;5089777;28;20059;-76
2023/05/19 01:00:35;;;;;;;15.60;5.72;;;9.10;99.90;;;;;;5124163;27;20164;-75
2023/05/19 01:03:09;;;;;;;18.33;5.78;;;9.10;99.90;;;;;;5090232;28;20061;-75
2023/05/19 01:05:40;;;;;;;16.80;5.30;;;9.10;99.90;;;;;;5089986;28;20449;-75
2023/05/19 01:08:06;;;;;;;17.90;5.15;;;9.00;99.90;;;;;;5133840;27;20046;-76
2023/05/19 01:10:32;;;;;;;;;;;9.00;99.90;;;;;;5127110;27;20044;-75
2023/05/19 01:12:57;;;;;;;13.13;5.43;;;9.00;99.90;;;;;;5130878;27;19929;-75
2023/05/19 01:15:25;;;;;;;15.43;5.65;;;9.00;99.90;;;;;;5129114;27;20051;-76
2023/05/19 01:18:10;;;;;;;18.63;5.60;;;9.00;99.90;;;;;;5129762;27;20460;-76
2023/05/19 01:20:47;;;;;;;22.75;5.55;;;8.90;99.90;;;;;;5099132;28;20125;-75
2023/05/19 01:23:25;;;;;;;19.02;6.13;;;9.00;99.90;;;;;;5123815;27;20064;-76
2023/05/19 01:26:24;;;;;;;16.08;5.68;;;9.00;99.90;;;;;;5123719;27;20412;-75
2023/05/19 01:29:18;;;;;;;17.02;5.15;;;8.90;99.90;;;;;;5126232;27;20047;-75
2023/05/19 01:31:46;;;;;;;16.42;5.75;;;8.90;99.90;;;;;;5096020;28;20048;-76
2023/05/19 01:34:15;;;;;;;19.95;5.80;;;8.90;99.90;;;;;;5116319;27;20055;-75
2023/05/19 01:36:43;;;;;;;17.55;6.05;;;8.90;99.90;;;;;;5126915;27;20074;-76
2023/05/19 01:39:09;;;;;;;15.40;5.82;;;8.90;99.90;;;;;;5109998;28;20051;-76
2023/05/19 01:41:37;;;;;;;16.23;6.50;;;8.90;99.90;;;;;;5109866;28;20131;-75
2023/05/19 01:44:03;;;;;;;15.65;6.20;;;8.90;99.90;;;;;;5126580;27;20079;-75
2023/05/19 01:46:28;;;;;;;16.73;5.75;;;8.90;99.90;;;;;;5106890;28;20108;-76
2023/05/19 01:48:55;;;;;;;14.82;6.13;;;8.80;99.90;;;;;;5061883;28;20130;-76
2023/05/19 01:51:20;;;;;;;;;;;8.90;99.90;;;;;;5113245;27;20412;-76
2023/05/19 01:53:46;;;;;;;17.27;6.35;;;8.80;99.90;;;;;;5109395;28;19930;-76
2023/05/19 01:56:15;;;;;;;16.30;6.70;;;8.80;99.90;;;;;;5126753;27;20070;-78
2023/05/19 01:58:45;;;;;;;15.40;5.97;;;8.80;99.90;;;;;;5107565;28;20263;-73
2023/05/19 02:01:30;;;;;;;21.83;6.50;;;8.70;99.90;;;;;;5078431;28;20051;-74
2023/05/19 02:04:10;;;;;;;13.27;6.07;;;8.70;99.90;;;;;;5151429;27;20043;-74
2023/05/19 02:06:44;;;;;;;20.48;6.55;;;8.70;99.90;;;;;;5128408;28;20039;-74
2023/05/19 02:09:32;;;;;;;16.38;5.90;;;8.70;99.90;;;;;;5118714;28;20079;-76
2023/05/19 02:12:21;;;;;;;13.98;6.10;;;8.60;99.90;;;;;;5107052;28;20040;-73
2023/05/19 02:15:00;;;;;;;15.77;6.15;;;8.60;99.90;;;;;;5129533;28;20047;-74
2023/05/19 02:17:31;;;;;;;16.20;6.57;;;8.60;99.90;;;;;;5114221;28;20043;-73
2023/05/19 02:19:58;;;;;;;17.60;6.70;;;8.60;99.90;;;;;;5126169;28;20416;-73
2023/05/19 02:22:24;;;;;;;16.60;6.38;;;8.60;99.90;;;;;;5100311;28;20444;-73
2023/05/19 02:24:50;;;;;;;15.70;5.82;;;8.50;99.90;;;;;;5127131;28;20085;-73
2023/05/19 02:27:16;;;;;;;;;;;8.50;99.90;;;;;;5116528;28;20089;-77
2023/05/19 02:29:41;;;;;;;19.13;6.25;;;8.50;99.90;;;;;;5115287;28;19919;-73
2023/05/19 02:32:07;;;;;;;19.33;7.05;;;8.50;99.90;;;;;;5112707;28;20051;-73
2023/05/19 02:34:33;;;;;;;15.68;6.28;;;8.40;99.90;;;;;;5128448;28;20096;-73
2023/05/19 02:36:58;;;;;;;16.90;6.47;;;8.40;99.90;;;;;;5116332;28;20130;-73
2023/05/19 02:39:25;;;;;;;13.27;6.43;;;8.40;99.90;;;;;;5110876;27;20123;-73
2023/05/19 02:41:50;;;;;;;;;;;8.40;99.90;;;;;;5142169;27;20052;-73
2023/05/19 02:44:16;;;;;;;17.70;6.30;;;8.30;99.90;;;;;;5118546;27;19968;-78
2023/05/19 02:46:42;;;;;;;14.95;6.32;;;8.30;99.90;;;;;;5133242;27;20122;-73
2023/05/19 02:49:08;;;;;;;13.77;6.65;;;8.30;99.90;;;;;;5133060;27;20035;-73
2023/05/19 02:51:34;;;;;;;18.92;6.88;;;8.30;99.90;;;;;;5132991;27;20468;-76
2023/05/19 02:54:00;;;;;;;21.50;6.53;;;8.20;99.90;;;;;;5134614;27;20051;-73
2023/05/19 02:56:26;;;;;;;19.85;6.30;;;8.20;99.90;;;;;;5132887;27;20484;-75
2023/05/19 02:58:52;;;;;;;17.75;6.03;;;8.20;99.90;;;;;;5098073;28;20528;-73
2023/05/19 03:01:20;;;;;;;15.35;5.93;;;8.20;99.90;;;;;;5126375;27;20058;-77
2023/05/19 03:03:45;;;;;;;15.50;6.60;;;8.20;99.90;;;;;;5100093;28;20056;-72
2023/05/19 03:06:12;;;;;;;22.52;6.85;;;8.20;99.90;;;;;;5160547;27;20752;-74
2023/05/19 03:08:37;;;;;;;17.45;6.25;;;8.20;99.90;;;;;;5119133;27;20662;-74
2023/05/19 03:11:03;;;;;;;19.85;6.63;;;8.20;99.90;;;;;;5133325;27;20142;-73
2023/05/19 03:13:29;;;;;;;18.45;6.53;;;8.20;99.90;;;;;;5131955;27;20055;-74
2023/05/19 03:15:56;;;;;;;18.02;6.40;;;8.20;99.90;;;;;;5133046;27;20058;-73
2023/05/19 03:18:23;;;;;;;17.90;6.75;;;8.10;99.90;;;;;;5131767;27;20078;-75
2023/05/19 03:20:49;;;;;;;20.40;6.60;;;8.20;99.90;;;;;;5108931;27;20093;-74
2023/05/19 03:23:15;;;;;;;17.98;6.53;;;8.20;99.90;;;;;;5112712;27;20049;-73
2023/05/19 03:25:40;;;;;;;20.08;6.80;;;8.20;99.90;;;;;;5165826;27;20047;-74
2023/05/19 03:28:06;;;;;;;17.30;6.47;;;8.20;99.90;;;;;;5132544;27;20035;-73
2023/05/19 03:30:32;;;;;;;14.77;6.38;;;8.10;99.90;;;;;;5131615;27;20066;-73
2023/05/19 03:33:00;;;;;;;15.07;6.47;;;8.20;99.90;;;;;;5124780;27;20047;-74
2023/05/19 03:35:26;;;;;;;19.30;6.35;;;8.10;99.90;;;;;;5131999;27;20047;-74
2023/05/19 03:37:52;;;;;;;15.35;7.20;;;8.10;99.90;;;;;;5130739;27;20488;-73
2023/05/19 03:40:17;;;;;;;16.95;6.55;;;8.10;99.90;;;;;;5118571;27;20049;-73
2023/05/19 03:42:43;;;;;;;14.88;6.72;;;8.10;99.90;;;;;;5122301;27;20112;-74
2023/05/19 03:45:09;;;;;;;17.77;6.72;;;8.10;99.90;;;;;;5128511;27;20522;-74
2023/05/19 03:47:35;;;;;;;21.13;6.80;;;8.10;99.90;;;;;;5131540;27;20065;-73
2023/05/19 03:50:01;;;;;;;15.40;6.32;;;8.10;99.90;;;;;;5115072;27;20483;-74
2023/05/19 03:52:26;;;;;;;16.38;7.35;;;8.10;99.90;;;;;;5112213;27;20047;-74
2023/05/19 03:54:52;;;;;;;14.00;6.63;;;8.10;99.90;;;;;;5110871;28;20055;-73
2023/05/19 03:57:18;;;;;;;13.50;6.47;;;8.00;99.90;;;;;;5113964;27;20055;-73
2023/05/19 03:59:44;;;;;;;14.68;6.75;;;8.00;99.90;;;;;;5113983;27;20054;-73
2023/05/19 04:02:09;;;;;;;16.70;7.10;;;8.00;99.90;;;;;;5131923;27;20054;-74
2023/05/19 04:04:36;;;;;;;21.92;6.93;;;8.00;99.90;;;;;;5114282;27;20046;-73
2023/05/19 04:07:03;;;;;;;15.57;6.18;;;8.00;99.90;;;;;;5131109;27;20498;-73
2023/05/19 04:09:30;;;;;;;;;;;8.00;99.90;;;;;;5131685;27;20062;-75
2023/05/19 04:11:56;;;;;;;20.20;7.13;;;8.00;99.90;;;;;;5131660;27;20004;-73
2023/05/19 04:14:24;;;;;;;22.20;7.50;;;8.00;99.90;;;;;;5132540;27;20071;-73
2023/05/19 04:16:50;;;;;;;17.45;6.75;;;8.00;99.90;;;;;;5131718;27;20099;-73
2023/05/19 04:19:16;;;;;;;18.05;6.78;;;8.00;99.90;;;;;;5131807;27;20062;-73
2023/05/19 04:21:42;;;;;;;17.13;7.50;;;8.10;99.90;;;;;;5123756;27;20043;-73
2023/05/19 04:24:07;;;;;;;18.00;6.63;;;8.10;99.90;;;;;;5129063;27;20528;-74
2023/05/19 04:26:33;;;;;;;14.70;6.68;;;8.00;99.90;;;;;;5113332;27;20472;-75
2023/05/19 04:29:03;;;;;;;16.15;6.15;;;8.10;99.90;;;;;;5131050;27;20103;-73
2023/05/19 04:31:28;;;;;;;15.10;6.80;;;8.10;99.90;;;;;;5131467;27;20082;-74
2023/05/19 04:33:54;;;;;;;14.43;7.00;;;8.10;99.90;;;;;;5132466;27;20075;-75
2023/05/19 04:36:20;;;;;;;20.13;7.05;;;8.10;99.90;;;;;;5131695;27;20117;-74
2023/05/19 04:38:46;;;;;;;;;;;8.10;99.90;;;;;;5099376;28;20082;-74
2023/05/19 04:41:12;;;;;;;15.40;6.55;;;8.20;99.90;;;;;;5111481;28;19920;-73
2023/05/19 04:43:40;;;;;;;18.35;7.15;;;8.20;99.90;;;;;;5105238;28;20040;-73
2023/05/19 04:46:12;;;;;;;17.08;7.20;;;8.30;99.90;;;;;;5090884;28;20044;-75
2023/05/19 04:48:38;;;;;;;17.80;7.45;;;8.30;99.90;;;;;;5123479;27;20120;-74
2023/05/19 04:51:05;;;;;;;17.33;7.50;;;8.40;99.90;;;;;;5118153;27;20048;-73
2023/05/19 04:53:30;;;;;;;;;;;8.40;99.90;;;;;;5112055;28;20058;-73
2023/05/19 04:55:57;;;;;;;13.88;7.13;;;8.50;99.90;;;;;;5122598;27;19924;-73
2023/05/19 04:58:26;;;;;;;17.23;7.20;;;8.50;99.90;;;;;;5090227;28;20060;-73
2023/05/19 05:00:57;;;;;;;18.13;7.65;;;8.60;99.90;;;;;;5090155;28;20047;-73
2023/05/19 05:03:23;;;;;;;17.13;7.43;;;8.70;99.90;;;;;;5101135;28;20074;-73
2023/05/19 05:05:49;;;;;;;19.83;6.78;;;8.70;99.90;;;;;;5109726;28;20490;-73
2023/05/19 05:08:21;;;;;;;21.65;6.80;;;8.80;99.90;;;;;;5110917;28;20116;-73
2023/05/19 05:10:51;;;;;;;21.48;6.60;;;8.90;99.90;;;;;;5110126;28;20063;-73
2023/05/19 05:13:20;;;;;;;16.48;6.88;;;9.00;99.90;;;;;;5110384;28;20051;-73
2023/05/19 05:15:46;;;;;;;15.32;6.85;;;9.00;99.90;;;;;;5108807;28;20047;-73
2023/05/19 05:18:14;;;;;;;12.52;5.90;;;9.10;99.90;;;;;;5124700;27;20046;-73
2023/05/19 05:20:43;;;;;;;16.73;7.07;;;9.20;99.90;;;;;;5109715;28;20048;-73
2023/05/19 05:23:13;;;;;;;16.90;6.95;;;9.30;99.90;;;;;;5126064;27;20126;-73
2023/05/19 05:25:40;;;;;;;14.70;6.20;;;9.30;99.90;;;;;;5123569;27;20048;-73
2023/05/19 05:28:06;;;;;;;19.52;6.35;;;9.40;99.90;;;;;;5089585;28;20067;-74
2023/05/19 05:30:32;;;;;;;14.95;6.68;;;9.50;99.90;;;;;;5090333;28;20374;-73
2023/05/19 05:32:58;;;;;;;15.95;6.07;;;9.60;99.90;;;;;;5106687;28;20050;-73
2023/05/19 05:35:24;;;;;;;12.70;5.55;;;9.70;99.90;;;;;;5123495;27;20051;-73
2023/05/19 05:37:50;;;;;;;14.88;5.60;;;9.70;99.90;;;;;;5122547;27;20045;-73
2023/05/19 05:40:16;;;;;;;11.95;5.55;;;9.90;99.90;;;;;;5125128;27;20047;-73
2023/05/19 05:42:42;;;;;;;11.75;5.60;;;9.90;99.90;;;;;;5126979;27;20055;-74
2023/05/19 05:45:08;;;;;;;13.27;5.00;;;10.00;99.90;;;;;;5107694;28;20116;-73
2023/05/19 05:47:37;;;;;;;10.43;4.60;;;10.10;99.90;;;;;;5137125;27;20451;-73
2023/05/19 05:50:07;;;;;;;12.93;5.20;;;10.10;99.90;;;;;;5095672;28;20143;-74
2023/05/19 05:52:36;;;;;;;15.25;5.40;;;10.20;99.90;;;;;;5108947;28;20058;-77
2023/05/19 05:55:02;;;;;;;13.95;5.25;;;10.30;99.90;;;;;;5110475;28;20087;-73
2023/05/19 05:57:29;;;;;;;13.65;4.93;;;10.30;99.90;;;;;;5096174;28;20092;-77
2023/05/19 05:59:55;;;;;;;11.48;4.68;;;10.40;99.90;;;;;;5105207;28;20481;-79
2023/05/19 06:02:21;;;;;;;;;;;10.40;99.90;;;;;;5097269;28;20077;-74
2023/05/19 06:04:47;;;;;;;10.48;4.60;;;10.40;99.90;;;;;;5110586;28;19971;-76
2023/05/19 06:07:13;;;;;;;11.55;5.28;;;10.50;99.90;;;;;;5115950;28;20044;-74
2023/05/19 06:09:38;;;;;;;10.85;4.60;;;10.60;99.90;;;;;;5088771;28;20069;-75
2023/05/19 06:12:05;;;;;;;11.23;5.60;;;10.60;99.90;;;;;;5119632;27;20051;-75
2023/05/19 06:14:31;;;;;;;12.20;4.88;;;10.60;99.90;;;;;;5130117;27;20497;-76
2023/05/19 06:16:56;;;;;;;10.23;4.63;;;10.70;99.90;;;;;;5130314;27;20048;-75
2023/05/19 06:19:24;;;;;;;10.07;3.97;;;10.80;99.90;;;;;;5113793;28;20044;-73
2023/05/19 06:21:50;;;;;;;10.75;4.15;;;10.80;99.90;;;;;;5139937;27;20489;-74
2023/05/19 06:24:15;;;;;;;13.38;4.65;;;10.90;99.90;;;;;;5127503;27;20048;-74
2023/05/19 06:26:41;;;;;;;15.02;5.00;;;11.00;99.90;;;;;;5116667;27;20399;-75
2023/05/19 06:29:07;;;;;;;13.05;4.65;;;11.10;99.90;;;;;;5147447;27;20052;-75
2023/05/19 06:31:33;;;;;;;17.15;4.50;;;11.20;99.90;;;;;;5130502;27;20047;-77
2023/05/19 06:33:58;;;;;;;12.57;4.05;;;11.20;99.90;;;;;;5130366;27;20047;-75
2023/05/19 06:36:24;;;;;;;13.20;4.72;;;11.30;99.90;;;;;;5100027;28;20509;-76
2023/05/19 06:38:50;;;;;;;9.23;4.13;;;11.40;99.90;;;;;;5092924;28;20104;-77
2023/05/19 06:41:16;;;;;;;13.23;3.88;;;11.50;99.90;;;;;;5093384;28;20127;-76
2023/05/19 06:43:42;;;;;;;14.32;4.22;;;11.60;99.90;;;;;;5091990;28;20059;-80
2023/05/19 06:46:08;;;;;;;10.02;4.30;;;11.70;99.90;;;;;;5094019;28;20043;-78
2023/05/19 06:48:34;;;;;;;17.42;4.15;;;11.80;99.90;;;;;;5112953;28;20073;-79
2023/05/19 06:51:00;;;;;;;12.45;3.75;;;11.80;99.90;;;;;;5110835;28;20047;-76
2023/05/19 06:53:25;;;;;;;14.60;4.32;;;11.90;99.90;;;;;;5100005;28;20101;-77
2023/05/19 06:55:51;;;;;;;10.18;3.90;;;12.00;99.90;;;;;;5109115;28;20052;-72
2023/05/19 06:58:17;;;;;;;10.95;3.88;;;12.10;99.90;;;;;;5111275;28;20079;-73
2023/05/19 07:00:42;;;;;;;14.07;5.07;;;12.10;99.90;;;;;;5112288;28;20054;-71
2023/05/19 07:03:08;;;;;;;12.45;4.90;;;12.20;99.90;;;;;;5114117;28;20077;-72
2023/05/19 07:05:34;;;;;;;10.65;3.40;;;12.20;99.90;;;;;;5112589;28;20177;-71
2023/05/19 07:08:00;;;;;;;10.13;3.85;;;12.30;99.90;;;;;;5113786;28;20548;-72
2023/05/19 07:10:26;;;;;;;9.65;3.78;;;12.40;99.90;;;;;;5113570;28;20485;-72
2023/05/19 07:12:52;;;;;;;;;;;12.50;99.90;;;;;;5106300;28;20118;-71
2023/05/19 07:15:18;;;;;;;13.27;3.80;;;12.50;99.90;;;;;;5105536;28;19924;-71
2023/05/19 07:17:43;;;;;;;10.07;3.65;;;12.60;99.90;;;;;;5112952;28;20433;-71
2023/05/19 07:20:09;;;;;;;11.15;3.35;;;12.60;99.90;;;;;;5113921;28;20131;-72
2023/05/19 07:22:37;;;;;;;8.30;3.58;;;12.70;99.90;;;;;;5146972;27;20075;-82
2023/05/19 07:25:02;;;;;;;9.30;3.40;;;12.90;99.90;;;;;;5144891;27;20051;-82
2023/05/19 07:27:28;;;;;;;9.32;4.05;;;13.00;99.90;;;;;;5112882;28;20077;-74
2023/05/19 07:29:54;;;;;;;10.18;3.15;;;13.10;99.90;;;;;;5128234;27;20047;-73
2023/05/19 07:32:19;;;;;;;8.63;3.45;;;13.20;99.90;;;;;;5129457;27;20071;-71
2023/05/19 07:34:45;;;;;;;7.93;2.92;;;13.30;99.90;;;;;;5118093;27;20048;-71
2023/05/19 07:37:11;;;;;;;11.45;3.28;;;13.40;99.90;;;;;;5126963;27;20130;-72
2023/05/19 07:39:37;;;;;;;12.25;3.55;;;13.50;99.90;;;;;;5116787;27;20062;-71
2023/05/19 07:42:02;;;;;;;9.30;2.88;;;13.60;99.90;;;;;;5130229;27;20058;-80
2023/05/19 07:44:30;;;;;;;10.68;2.88;;;13.70;99.90;;;;;;5130770;27;20047;-81
2023/05/19 07:46:56;;;;;;;6.40;2.45;;;13.70;99.90;;;;;;5131246;27;20051;-80
2023/05/19 07:49:22;;;;;;;9.45;3.15;;;13.70;99.90;;;;;;5113957;27;20468;-75
2023/05/19 07:51:48;;;;;;;8.98;2.85;;;13.80;99.90;;;;;;5131140;27;20039;-70
2023/05/19 07:54:13;;;;;;;6.82;2.75;;;13.80;99.90;;;;;;5118724;27;20480;-71
2023/05/19 07:56:39;;;;;;;6.93;2.10;;;13.90;99.90;;;;;;5127852;27;20055;-71
2023/05/19 07:59:06;;;;;;;7.45;2.05;;;14.00;99.90;;;;;;5123268;27;20122;-74
2023/05/19 08:01:32;;;;;;;9.88;2.72;;;14.20;99.90;;;;;;5096019;28;20118;-74
2023/05/19 08:03:58;;;;;;;9.23;2.60;;;14.30;99.90;;;;;;5138781;27;20054;-74
2023/05/19 08:06:24;;;;;;;5.65;2.10;;;14.40;99.90;;;;;;5128091;27;20039;-74
2023/05/19 08:08:50;;;;;;;13.63;2.65;;;14.40;99.90;;;;;;5130259;27;20532;-73
2023/05/19 08:11:16;;;;;;;11.15;2.45;;;14.50;99.90;;;;;;5113983;27;20099;-73
2023/05/19 08:13:42;;;;;;;9.85;2.72;;;14.50;99.90;;;;;;5095912;27;20060;-74
2023/05/19 08:16:08;;;;;;;7.93;2.47;;;14.50;99.90;;;;;;5088657;28;20051;-73
2023/05/19 08:18:33;;;;;;;7.97;2.80;;;14.50;99.90;;;;;;5108149;28;20051;-74
2023/05/19 08:21:00;;;;;;;10.65;2.60;;;14.60;99.90;;;;;;5099329;28;20044;-74
2023/05/19 08:23:25;;;;;;;10.80;2.80;;;14.70;99.90;;;;;;5105575;28;20052;-74
2023/05/19 08:25:51;;;;;;;9.82;2.45;;;14.70;99.90;;;;;;5122519;27;20054;-74
2023/05/19 08:28:17;;;;;;;11.27;3.33;;;14.80;99.90;;;;;;5111606;27;20032;-74
2023/05/19 08:30:43;;;;;;;8.35;2.55;;;14.80;99.90;;;;;;5145674;27;20136;-74
2023/05/19 08:33:08;;;;;;;8.88;2.53;;;14.80;99.90;;;;;;5112219;27;20457;-74
2023/05/19 08:35:34;;;;;;;6.68;2.60;;;14.80;99.90;;;;;;5128523;27;20054;-74
2023/05/19 08:37:59;;;;;;;7.30;2.60;;;14.90;99.90;;;;;;5127352;27;20128;-75
2023/05/19 08:40:30;;;;;;;8.75;2.15;;;14.90;99.90;;;;;;5133199;27;20055;-75
2023/05/19 08:42:55;;;;;;;8.85;2.90;;;15.00;99.90;;;;;;5115975;27;20046;-73
2023/05/19 08:45:21;;;;;;;9.10;2.30;;;15.10;99.90;;;;;;5130088;27;20046;-71
2023/05/19 08:47:49;;;;;;;7.80;2.20;;;15.20;99.90;;;;;;5113327;27;20043;-72
2023/05/19 08:50:26;;;;;;;9.65;2.15;;;15.30;99.90;;;;;;5098963;27;20051;-72
2023/05/19 08:52:54;;;;;;;;;;;15.40;99.90;;;;;;5119754;27;20051;-71
2023/05/19 08:55:47;;;;;;;8.93;2.67;;;15.40;96.40;;;;;;5127300;27;19924;-71
2023/05/19 08:58:15;;;;;;;6.95;2.33;;;15.40;97.50;;;;;;5153589;27;20083;-71
2023/05/19 09:00:42;;;;;;;9.52;2.40;;;15.50;98.70;;;;;;5109505;27;20512;-71
2023/05/19 09:03:08;;;;;;;10.32;2.47;;;15.60;99.10;;;;;;5129405;27;20118;-72
2023/05/19 09:05:33;;;;;;;;;;;15.60;99.70;;;;;;5162540;27;20051;-75
2023/05/19 09:08:01;;;;;;;9.85;2.30;;;15.70;95.70;;;;;;5127857;27;19992;-71
2023/05/19 09:10:27;;;;;;;10.88;2.53;;;15.70;97.70;;;;;;5109546;27;20079;-71
2023/05/19 09:12:53;;;;;;;6.32;2.60;;;15.80;97.00;;;;;;5144374;27;20047;-73
2023/05/19 09:15:19;;;;;;;10.43;2.78;;;15.90;96.40;;;;;;5113122;27;20064;-71
2023/05/19 09:17:47;;;;;;;8.98;2.30;;;15.90;97.20;;;;;;5112729;27;20043;-71
2023/05/19 09:20:15;;;;;;;9.50;2.40;;;15.90;96.80;;;;;;5116353;27;20047;-69
2023/05/19 09:22:46;;;;;;;8.00;2.40;;;15.90;97.10;;;;;;5129709;27;20045;-70
2023/05/19 09:25:24;;;;;;;7.68;2.30;;;16.00;97.10;;;;;;5129648;27;20043;-72
2023/05/19 09:27:50;;;;;;;11.00;2.30;;;16.00;97.50;;;;;;5130012;27;20051;-72
2023/05/19 09:30:16;;;;;;;9.32;2.58;;;16.10;97.00;;;;;;5112198;27;20057;-72
2023/05/19 09:32:43;;;;;;;7.22;2.22;;;16.10;95.70;;;;;;5130036;27;20099;-72
2023/05/19 09:35:11;;;;;;;11.95;2.80;;;16.20;94.90;;;;;;5129992;27;20050;-72
2023/05/19 09:37:39;;;;;;;8.80;2.40;;;16.20;95.60;;;;;;5130552;27;20039;-72
2023/05/19 09:40:08;;;;;;;10.82;2.60;;;16.30;96.10;;;;;;5121556;27;20055;-72
2023/05/19 09:42:36;;;;;;;8.35;2.10;;;16.40;95.10;;;;;;5130512;27;20051;-72
2023/05/19 09:45:02;;;;;;;9.05;2.83;;;16.60;94.40;;;;;;5122402;27;20484;-72
2023/05/19 09:47:39;;;;;;;6.43;2.25;;;16.60;95.30;;;;;;5129603;27;20560;-72
2023/05/19 09:50:10;;;;;;;5.85;2.22;;;16.80;95.80;;;;;;5122679;27;20047;-72
2023/05/19 09:52:37;;;;;;;9.82;2.67;;;16.80;96.30;;;;;;5098604;28;20092;-71
2023/05/19 09:55:11;;;;;;;7.57;2.33;;;16.90;95.00;;;;;;5088817;28;20056;-72
2023/05/19 09:57:39;;;;;;;8.20;2.20;;;17.00;92.40;;;;;;5090837;28;20331;-71
2023/05/19 10:00:18;;;;;;;9.45;2.30;;;17.20;91.30;;;;;;5090088;28;20052;-72
2023/05/19 10:02:45;;;;;;;5.72;2.10;;;17.30;91.20;;;;;;5123458;28;20056;-71
2023/05/19 10:05:19;;;;;;;9.05;2.60;;;17.30;91.80;;;;;;5106143;28;20051;-72
2023/05/19 10:07:47;;;;;;;7.88;2.55;;;17.40;90.30;;;;;;5089728;28;20047;-72
2023/05/19 10:10:14;;;;;;;10.10;2.28;;;17.60;87.80;;;;;;5090515;28;20040;-72
2023/05/19 10:12:40;;;;;;;9.75;2.40;;;17.70;84.80;;;;;;5112289;28;20566;-72
2023/05/19 10:15:11;;;;;;;8.80;2.10;;;17.80;86.10;;;;;;5087853;28;20101;-72
2023/05/19 10:17:39;;;;;;;10.38;2.60;;;17.90;86.10;;;;;;5122445;28;20050;-72
2023/05/19 10:20:13;;;;;;;7.13;2.08;;;17.90;83.30;;;;;;5108557;28;20040;-72
2023/05/19 10:22:40;;;;;;;10.45;2.42;;;18.00;81.30;;;;;;5106181;28;20083;-71
2023/05/19 10:25:06;;;;;;;6.13;2.00;;;18.10;80.00;;;;;;5090205;28;20508;-72
2023/05/19 10:27:36;;;;;;;12.43;2.63;;;18.10;78.40;;;;;;5108239;28;20044;-72
2023/05/19 10:30:09;;;;;;;9.02;2.00;;;18.00;77.70;;;;;;5108515;28;20480;-73
2023/05/19 10:32:39;;;;;;;11.15;2.30;;;18.10;76.40;;;;;;5106555;28;20048;-72
2023/05/19 10:35:23;;;;;;;9.38;2.20;;;18.30;76.00;;;;;;5088698;28;20086;-72
2023/05/19 10:38:03;;;;;;;5.78;2.10;;;18.50;75.60;;;;;;5106551;28;20096;-72
2023/05/19 10:40:35;;;;;;;11.52;1.98;;;18.60;76.70;;;;;;5089342;28;20101;-72
2023/05/19 10:43:38;;;;;;;9.90;2.00;;;18.80;76.40;;;;;;5089429;28;20052;-72
2023/05/19 10:46:05;;;;;;;8.70;2.08;;;18.90;68.70;;;;;;5090138;28;20043;-73
2023/05/19 10:48:37;;;;;;;9.90;2.10;;;19.00;70.80;;;;;;5088741;28;20052;-72
2023/05/19 10:51:03;;;;;;;4.63;1.80;;;19.10;68.70;;;;;;5090689;28;20127;-72
2023/05/19 10:53:33;;;;;;;5.60;1.85;;;19.20;70.40;;;;;;5109230;28;20051;-72
2023/05/19 10:56:02;;;;;;;6.40;2.35;;;19.20;68.50;;;;;;5102067;28;20052;-72
2023/05/19 10:58:44;;;;;;;6.53;1.80;;;19.30;69.50;;;;;;5090192;28;20063;-71
2023/05/19 11:01:17;;;;;;;9.15;2.13;;;19.40;66.20;;;;;;5126878;27;20056;-71
2023/05/19 11:03:52;;;;;;;8.70;2.00;;;19.60;66.20;;;;;;5104564;28;20059;-71
2023/05/19 11:06:18;;;;;;;5.80;2.08;;;19.90;64.00;;;;;;5092499;28;20048;-72
2023/05/19 11:08:43;;;;;;;5.82;1.88;;;20.00;65.70;;;;;;5111289;28;20043;-71
2023/05/19 11:11:16;;;;;;;;;;;20.20;65.20;;;;;;5112814;28;20047;-71
2023/05/19 11:13:54;;;;;;;7.63;2.03;;;20.40;64.00;;;;;;5146742;27;20373;-72
2023/05/19 11:16:31;;;;;;;8.15;2.03;;;20.70;63.60;;;;;;5112464;28;20056;-72
2023/05/19 11:19:00;;;;;;;10.35;2.20;;;20.90;62.30;;;;;;5112630;28;20127;-72
2023/05/19 11:21:48;;;;;;;6.00;2.08;;;21.00;61.10;;;;;;5107541;28;20420;-73
2023/05/19 11:24:34;;;;;;;8.68;2.13;;;21.10;59.40;;;;;;5099405;28;20039;-72
2023/05/19 11:27:17;;;;;;;8.48;1.90;;;21.40;57.60;;;;;;5139095;27;20048;-72
2023/05/19 11:29:43;;;;;;;8.00;2.00;;;21.70;58.00;;;;;;5100519;28;20600;-72
2023/05/19 11:32:10;;;;;;;;;;;22.00;59.20;;;;;;5096664;28;20075;-72
2023/05/19 11:34:37;;;;;;;7.07;1.80;;;22.30;54.40;;;;;;5093637;28;19923;-71
2023/05/19 11:37:04;;;;;;;6.45;1.90;;;22.60;57.30;;;;;;5113620;27;20115;-79
2023/05/19 11:39:31;;;;;;;8.50;1.90;;;22.80;58.40;;;;;;5103562;28;20051;-72
2023/05/19 11:41:57;;;;;;;9.70;2.22;;;23.10;57.50;;;;;;5098727;28;20109;-73
2023/05/19 11:44:23;;;;;;;8.75;2.13;;;23.40;57.70;;;;;;5127690;27;20055;-72
2023/05/19 11:46:49;;;;;;;8.55;2.10;;;23.60;57.70;;;;;;5112984;28;20071;-72
2023/05/19 11:49:15;;;;;;;7.10;1.98;;;23.80;56.90;;;;;;5145148;27;20051;-72
2023/05/19 11:51:45;;;;;;;6.55;1.95;;;24.00;56.10;;;;;;5111733;28;20104;-73
2023/05/19 11:54:11;;;;;;;9.93;2.10;;;24.20;55.30;;;;;;5134084;27;20123;-73
2023/05/19 11:56:41;;;;;;;6.43;2.03;;;24.30;55.80;;;;;;5092441;28;20109;-70
2023/05/19 11:59:08;;;;;;;8.90;1.90;;;24.20;54.60;;;;;;5098196;28;20047;-78
2023/05/19 12:01:34;;;;;;;5.85;1.92;;;23.80;54.50;;;;;;5128904;27;20055;-72
2023/05/19 12:04:01;;;;;;;7.35;2.00;;;23.60;54.00;;;;;;5099459;28;20093;-74
2023/05/19 12:06:28;;;;;;;5.45;2.08;;;23.70;53.30;;;;;;5122348;27;20088;-74
2023/05/19 12:08:54;;;;;;;7.97;2.13;;;23.90;53.90;;;;;;5081964;28;20054;-70
2023/05/19 12:11:20;;;;;;;5.65;1.73;;;24.30;54.80;;;;;;5109042;28;20089;-69
2023/05/19 12:13:46;;;;;;;7.25;2.15;;;24.70;54.90;;;;;;5145350;27;20059;-70
2023/05/19 12:16:12;;;;;;;9.93;2.72;;;25.20;54.60;;;;;;5109408;28;20536;-69
2023/05/19 12:18:39;;;;;;;4.75;1.80;;;25.40;52.90;;;;;;5127014;27;20079;-70
2023/05/19 12:21:05;;;;;;;8.50;2.22;;;25.50;51.20;;;;;;5103818;28;20044;-70
2023/05/19 12:23:32;;;;;;;7.75;2.10;;;25.40;50.20;;;;;;5124377;27;20934;-68
2023/05/19 12:25:58;;;;;;;7.15;2.00;;;25.20;49.90;;;;;;5104518;28;20043;-74
2023/05/19 12:28:24;;;;;;;7.85;2.38;;;24.90;51.10;;;;;;5127010;27;20468;-73
2023/05/19 12:30:53;;;;;;;8.23;2.28;;;24.80;51.70;;;;;;5110987;28;20122;-70
2023/05/19 12:33:19;;;;;;;7.03;2.03;;;24.70;50.10;;;;;;5110314;28;20396;-73
2023/05/19 12:35:46;;;;;;;7.93;2.30;;;24.60;49.00;;;;;;5093549;28;20126;-72
2023/05/19 12:38:13;;;;;;;8.70;2.17;;;24.60;48.70;;;;;;5096978;28;20127;-73
2023/05/19 12:40:39;;;;;;;8.38;2.10;;;24.70;48.50;;;;;;5101301;28;20048;-73
2023/05/19 12:43:05;;;;;;;8.07;2.05;;;25.20;50.30;;;;;;5111955;28;20047;-72
2023/05/19 12:45:38;;;;;;;8.63;2.05;;;25.60;50.30;;;;;;5097037;28;20047;-70
2023/05/19 12:48:09;;;;;;;9.73;2.20;;;26.00;48.90;;;;;;5111738;28;20044;-69
2023/05/19 12:50:36;;;;;;;7.50;2.10;;;26.30;49.80;;;;;;5110183;28;20073;-69
2023/05/19 12:53:02;;;;;;;6.43;2.00;;;26.40;47.60;;;;;;5111060;28;20116;-70